sensor_id;sensor_type;location;lat;lon;timestamp;P1;durP1;ratioP1;P2;durP2;ratioP2
43435;SDS011;36399;51.444;-2.018;2022-07-06T00:01:45;4.03;;;1.80;;
43435;SDS011;36399;51.444;-2.018;2022-07-06T00:04:11;3.03;;;1.40;;
43435;SDS011;36399;51.444;-2.018;2022-07-06T00:06:37;4.07;;;2.00;;
43435;SDS011;36399;51.444;-2.018;2022-07-06T00:09:04;3.00;;;1.50;;
43435;SDS011;36399;51.444;-2.018;2022-07-06T00:11:30;3.80;;;1.73;;
43435;SDS011;36399;51.444;-2.018;2022-07-06T00:13:57;3.30;;;1.87;;
43435;SDS011;36399;51.444;-2.018;2022-07-06T00:16:23;3.40;;;1.60;;
43435;SDS011;36399;51.444;-2.018;2022-07-06T00:18:49;4.80;;;2.10;;
43435;SDS011;36399;51.444;-2.018;2022-07-06T00:21:15;2.73;;;1.43;;
43435;SDS011;36399;51.444;-2.018;2022-07-06T00:23:41;3.17;;;1.70;;
43435;SDS011;36399;51.444;-2.018;2022-07-06T00:26:07;4.17;;;2.20;;
43435;SDS011;36399;51.444;-2.018;2022-07-06T00:28:33;2.97;;;1.50;;
43435;SDS011;36399;51.444;-2.018;2022-07-06T00:30:59;5.70;;;2.57;;
43435;SDS011;36399;51.444;-2.018;2022-07-06T00:33:26;4.67;;;1.83;;
43435;SDS011;36399;51.444;-2.018;2022-07-06T00:35:52;5.23;;;2.13;;
43435;SDS011;36399;51.444;-2.018;2022-07-06T00:38:18;4.47;;;2.30;;
43435;SDS011;36399;51.444;-2.018;2022-07-06T00:40:44;2.60;;;1.57;;
43435;SDS011;36399;51.444;-2.018;2022-07-06T00:43:10;4.10;;;1.90;;
43435;SDS011;36399;51.444;-2.018;2022-07-06T00:45:36;6.10;;;2.03;;
43435;SDS011;36399;51.444;-2.018;2022-07-06T00:48:02;4.77;;;2.00;;
43435;SDS011;36399;51.444;-2.018;2022-07-06T00:50:28;3.43;;;2.07;;
43435;SDS011;36399;51.444;-2.018;2022-07-06T00:52:57;7.00;;;2.17;;
43435;SDS011;36399;51.444;-2.018;2022-07-06T00:55:26;2.90;;;1.50;;
43435;SDS011;36399;51.444;-2.018;2022-07-06T00:57:55;4.60;;;2.10;;
43435;SDS011;36399;51.444;-2.018;2022-07-06T01:00:23;4.27;;;1.90;;
43435;SDS011;36399;51.444;-2.018;2022-07-06T01:02:51;5.23;;;2.17;;
43435;SDS011;36399;51.444;-2.018;2022-07-06T01:05:18;3.53;;;1.70;;
43435;SDS011;36399;51.444;-2.018;2022-07-06T01:07:46;3.13;;;1.63;;
43435;SDS011;36399;51.444;-2.018;2022-07-06T01:10:14;5.53;;;1.90;;
43435;SDS011;36399;51.444;-2.018;2022-07-06T01:12:42;4.37;;;1.93;;
43435;SDS011;36399;51.444;-2.018;2022-07-06T01:15:27;3.63;;;1.90;;
43435;SDS011;36399;51.444;-2.018;2022-07-06T01:17:53;3.77;;;2.10;;
43435;SDS011;36399;51.444;-2.018;2022-07-06T01:20:20;3.80;;;2.23;;
43435;SDS011;36399;51.444;-2.018;2022-07-06T01:22:47;4.30;;;1.87;;
43435;SDS011;36399;51.444;-2.018;2022-07-06T01:25:15;5.03;;;1.83;;
43435;SDS011;36399;51.444;-2.018;2022-07-06T01:27:41;5.67;;;1.83;;
43435;SDS011;36399;51.444;-2.018;2022-07-06T01:30:13;4.37;;;1.70;;
43435;SDS011;36399;51.444;-2.018;2022-07-06T01:32:40;3.60;;;1.77;;
43435;SDS011;36399;51.444;-2.018;2022-07-06T01:35:09;4.70;;;2.27;;
43435;SDS011;36399;51.444;-2.018;2022-07-06T01:37:37;4.67;;;1.90;;
43435;SDS011;36399;51.444;-2.018;2022-07-06T01:40:04;3.40;;;1.63;;
43435;SDS011;36399;51.444;-2.018;2022-07-06T01:42:31;4.73;;;2.40;;
43435;SDS011;36399;51.444;-2.018;2022-07-06T01:44:57;3.60;;;2.00;;
43435;SDS011;36399;51.444;-2.018;2022-07-06T01:47:23;4.17;;;2.00;;
43435;SDS011;36399;51.444;-2.018;2022-07-06T01:49:49;3.53;;;1.60;;
43435;SDS011;36399;51.444;-2.018;2022-07-06T01:52:15;3.70;;;1.90;;
43435;SDS011;36399;51.444;-2.018;2022-07-06T01:54:41;6.40;;;2.10;;
43435;SDS011;36399;51.444;-2.018;2022-07-06T01:57:07;3.73;;;2.00;;
43435;SDS011;36399;51.444;-2.018;2022-07-06T01:59:34;3.47;;;1.70;;
43435;SDS011;36399;51.444;-2.018;2022-07-06T02:02:00;4.10;;;2.10;;
43435;SDS011;36399;51.444;-2.018;2022-07-06T02:04:26;4.83;;;2.10;;
43435;SDS011;36399;51.444;-2.018;2022-07-06T02:06:52;4.20;;;2.10;;
43435;SDS011;36399;51.444;-2.018;2022-07-06T02:09:18;4.20;;;2.13;;
43435;SDS011;36399;51.444;-2.018;2022-07-06T02:11:44;3.40;;;1.87;;
43435;SDS011;36399;51.444;-2.018;2022-07-06T02:14:10;2.93;;;1.87;;
43435;SDS011;36399;51.444;-2.018;2022-07-06T02:16:36;4.30;;;2.00;;
43435;SDS011;36399;51.444;-2.018;2022-07-06T02:19:02;4.00;;;2.40;;
43435;SDS011;36399;51.444;-2.018;2022-07-06T02:21:29;4.87;;;2.30;;
43435;SDS011;36399;51.444;-2.018;2022-07-06T02:23:55;3.93;;;2.13;;
43435;SDS011;36399;51.444;-2.018;2022-07-06T02:26:20;4.03;;;2.40;;
43435;SDS011;36399;51.444;-2.018;2022-07-06T02:28:46;4.67;;;2.37;;
43435;SDS011;36399;51.444;-2.018;2022-07-06T02:31:13;8.47;;;2.67;;
43435;SDS011;36399;51.444;-2.018;2022-07-06T02:33:40;6.43;;;3.07;;
43435;SDS011;36399;51.444;-2.018;2022-07-06T02:36:06;9.13;;;3.60;;
43435;SDS011;36399;51.444;-2.018;2022-07-06T02:38:33;6.20;;;3.17;;
43435;SDS011;36399;51.444;-2.018;2022-07-06T02:40:59;5.30;;;3.03;;
43435;SDS011;36399;51.444;-2.018;2022-07-06T02:43:25;4.80;;;2.43;;
43435;SDS011;36399;51.444;-2.018;2022-07-06T02:45:51;4.53;;;2.20;;
43435;SDS011;36399;51.444;-2.018;2022-07-06T02:48:17;4.00;;;2.07;;
43435;SDS011;36399;51.444;-2.018;2022-07-06T02:50:45;3.53;;;2.13;;
43435;SDS011;36399;51.444;-2.018;2022-07-06T02:53:10;5.83;;;1.93;;
43435;SDS011;36399;51.444;-2.018;2022-07-06T02:55:36;3.90;;;1.63;;
43435;SDS011;36399;51.444;-2.018;2022-07-06T02:58:03;4.47;;;2.10;;
43435;SDS011;36399;51.444;-2.018;2022-07-06T03:00:29;7.07;;;2.50;;
43435;SDS011;36399;51.444;-2.018;2022-07-06T03:02:55;5.27;;;2.90;;
43435;SDS011;36399;51.444;-2.018;2022-07-06T03:05:21;3.60;;;1.97;;
43435;SDS011;36399;51.444;-2.018;2022-07-06T03:07:47;4.13;;;2.30;;
43435;SDS011;36399;51.444;-2.018;2022-07-06T03:10:13;4.77;;;2.20;;
43435;SDS011;36399;51.444;-2.018;2022-07-06T03:12:39;4.43;;;2.10;;
43435;SDS011;36399;51.444;-2.018;2022-07-06T03:15:05;3.90;;;2.20;;
43435;SDS011;36399;51.444;-2.018;2022-07-06T03:17:31;4.27;;;2.40;;
43435;SDS011;36399;51.444;-2.018;2022-07-06T03:19:57;3.40;;;1.80;;
43435;SDS011;36399;51.444;-2.018;2022-07-06T03:22:23;4.03;;;1.87;;
43435;SDS011;36399;51.444;-2.018;2022-07-06T03:24:49;5.00;;;2.60;;
43435;SDS011;36399;51.444;-2.018;2022-07-06T03:27:15;2.77;;;1.47;;
43435;SDS011;36399;51.444;-2.018;2022-07-06T03:29:41;4.23;;;2.30;;
43435;SDS011;36399;51.444;-2.018;2022-07-06T03:32:07;3.47;;;1.93;;
43435;SDS011;36399;51.444;-2.018;2022-07-06T03:34:33;5.87;;;2.50;;
43435;SDS011;36399;51.444;-2.018;2022-07-06T03:36:59;3.80;;;1.80;;
43435;SDS011;36399;51.444;-2.018;2022-07-06T03:39:25;3.50;;;2.37;;
43435;SDS011;36399;51.444;-2.018;2022-07-06T03:41:51;4.63;;;1.80;;
43435;SDS011;36399;51.444;-2.018;2022-07-06T03:44:17;4.13;;;1.70;;
43435;SDS011;36399;51.444;-2.018;2022-07-06T03:46:43;2.70;;;1.40;;
43435;SDS011;36399;51.444;-2.018;2022-07-06T03:49:09;3.10;;;1.53;;
43435;SDS011;36399;51.444;-2.018;2022-07-06T03:51:35;2.70;;;1.60;;
43435;SDS011;36399;51.444;-2.018;2022-07-06T03:54:01;4.27;;;2.03;;
43435;SDS011;36399;51.444;-2.018;2022-07-06T03:56:27;2.93;;;1.63;;
43435;SDS011;36399;51.444;-2.018;2022-07-06T03:58:53;3.30;;;1.50;;
43435;SDS011;36399;51.444;-2.018;2022-07-06T04:01:23;2.60;;;1.50;;
43435;SDS011;36399;51.444;-2.018;2022-07-06T04:03:50;3.33;;;1.67;;
43435;SDS011;36399;51.444;-2.018;2022-07-06T04:06:16;4.03;;;1.73;;
43435;SDS011;36399;51.444;-2.018;2022-07-06T04:08:42;3.00;;;1.37;;
43435;SDS011;36399;51.444;-2.018;2022-07-06T04:11:08;2.97;;;1.37;;
43435;SDS011;36399;51.444;-2.018;2022-07-06T04:13:34;2.87;;;1.57;;
43435;SDS011;36399;51.444;-2.018;2022-07-06T04:16:00;3.83;;;1.50;;
43435;SDS011;36399;51.444;-2.018;2022-07-06T04:18:26;4.77;;;1.33;;
43435;SDS011;36399;51.444;-2.018;2022-07-06T04:20:52;2.80;;;1.57;;
43435;SDS011;36399;51.444;-2.018;2022-07-06T04:23:18;2.90;;;1.53;;
43435;SDS011;36399;51.444;-2.018;2022-07-06T04:25:44;2.70;;;1.13;;
43435;SDS011;36399;51.444;-2.018;2022-07-06T04:28:10;4.47;;;1.50;;
43435;SDS011;36399;51.444;-2.018;2022-07-06T04:30:36;3.13;;;1.40;;
43435;SDS011;36399;51.444;-2.018;2022-07-06T04:33:02;5.67;;;1.93;;
43435;SDS011;36399;51.444;-2.018;2022-07-06T04:35:28;2.83;;;1.53;;
43435;SDS011;36399;51.444;-2.018;2022-07-06T04:37:54;2.83;;;1.43;;
43435;SDS011;36399;51.444;-2.018;2022-07-06T04:40:21;3.20;;;1.60;;
43435;SDS011;36399;51.444;-2.018;2022-07-06T04:42:47;4.93;;;1.63;;
43435;SDS011;36399;51.444;-2.018;2022-07-06T04:45:13;4.10;;;1.57;;
43435;SDS011;36399;51.444;-2.018;2022-07-06T04:47:39;4.10;;;1.90;;
43435;SDS011;36399;51.444;-2.018;2022-07-06T04:50:06;3.67;;;1.80;;
43435;SDS011;36399;51.444;-2.018;2022-07-06T04:52:32;2.60;;;1.40;;
43435;SDS011;36399;51.444;-2.018;2022-07-06T04:54:58;4.80;;;1.90;;
43435;SDS011;36399;51.444;-2.018;2022-07-06T04:57:24;4.63;;;1.70;;
43435;SDS011;36399;51.444;-2.018;2022-07-06T04:59:55;4.37;;;1.70;;
43435;SDS011;36399;51.444;-2.018;2022-07-06T05:02:21;3.23;;;1.60;;
43435;SDS011;36399;51.444;-2.018;2022-07-06T05:04:47;3.30;;;1.63;;
43435;SDS011;36399;51.444;-2.018;2022-07-06T05:07:13;5.03;;;1.60;;
43435;SDS011;36399;51.444;-2.018;2022-07-06T05:09:39;3.53;;;1.70;;
43435;SDS011;36399;51.444;-2.018;2022-07-06T05:12:05;7.03;;;1.70;;
43435;SDS011;36399;51.444;-2.018;2022-07-06T05:14:31;3.97;;;1.77;;
43435;SDS011;36399;51.444;-2.018;2022-07-06T05:16:57;4.57;;;1.67;;
43435;SDS011;36399;51.444;-2.018;2022-07-06T05:19:23;3.20;;;1.30;;
43435;SDS011;36399;51.444;-2.018;2022-07-06T05:21:50;3.17;;;1.53;;
43435;SDS011;36399;51.444;-2.018;2022-07-06T05:24:16;4.33;;;2.10;;
43435;SDS011;36399;51.444;-2.018;2022-07-06T05:26:42;3.30;;;1.40;;
43435;SDS011;36399;51.444;-2.018;2022-07-06T05:29:08;4.03;;;1.37;;
43435;SDS011;36399;51.444;-2.018;2022-07-06T05:31:34;3.73;;;1.50;;
43435;SDS011;36399;51.444;-2.018;2022-07-06T05:34:00;3.53;;;1.90;;
43435;SDS011;36399;51.444;-2.018;2022-07-06T05:36:26;2.50;;;1.40;;
43435;SDS011;36399;51.444;-2.018;2022-07-06T05:38:52;3.70;;;1.37;;
43435;SDS011;36399;51.444;-2.018;2022-07-06T05:41:18;4.10;;;1.60;;
43435;SDS011;36399;51.444;-2.018;2022-07-06T05:43:44;3.90;;;1.40;;
43435;SDS011;36399;51.444;-2.018;2022-07-06T05:46:10;3.00;;;1.50;;
43435;SDS011;36399;51.444;-2.018;2022-07-06T05:48:36;3.70;;;1.40;;
43435;SDS011;36399;51.444;-2.018;2022-07-06T05:51:20;3.60;;;1.50;;
43435;SDS011;36399;51.444;-2.018;2022-07-06T05:53:46;3.90;;;2.00;;
43435;SDS011;36399;51.444;-2.018;2022-07-06T05:56:13;3.20;;;1.70;;
43435;SDS011;36399;51.444;-2.018;2022-07-06T05:58:39;4.70;;;2.37;;
43435;SDS011;36399;51.444;-2.018;2022-07-06T06:01:05;4.83;;;2.40;;
43435;SDS011;36399;51.444;-2.018;2022-07-06T06:03:35;3.27;;;1.73;;
43435;SDS011;36399;51.444;-2.018;2022-07-06T06:06:01;4.10;;;2.20;;
43435;SDS011;36399;51.444;-2.018;2022-07-06T06:08:27;3.87;;;1.60;;
43435;SDS011;36399;51.444;-2.018;2022-07-06T06:10:53;3.47;;;1.50;;
43435;SDS011;36399;51.444;-2.018;2022-07-06T06:13:19;4.03;;;1.50;;
43435;SDS011;36399;51.444;-2.018;2022-07-06T06:15:45;2.80;;;1.30;;
43435;SDS011;36399;51.444;-2.018;2022-07-06T06:18:11;3.57;;;1.70;;
43435;SDS011;36399;51.444;-2.018;2022-07-06T06:20:38;3.20;;;1.60;;
43435;SDS011;36399;51.444;-2.018;2022-07-06T06:23:04;4.47;;;1.70;;
43435;SDS011;36399;51.444;-2.018;2022-07-06T06:25:36;3.00;;;1.70;;
43435;SDS011;36399;51.444;-2.018;2022-07-06T06:28:04;2.78;;;1.50;;
43435;SDS011;36399;51.444;-2.018;2022-07-06T06:30:34;4.30;;;1.83;;
43435;SDS011;36399;51.444;-2.018;2022-07-06T06:33:11;3.15;;;1.65;;
43435;SDS011;36399;51.444;-2.018;2022-07-06T06:35:41;5.10;;;1.88;;
43435;SDS011;36399;51.444;-2.018;2022-07-06T06:38:09;4.13;;;1.52;;
43435;SDS011;36399;51.444;-2.018;2022-07-06T06:40:35;2.22;;;1.30;;
43435;SDS011;36399;51.444;-2.018;2022-07-06T06:43:01;3.30;;;1.40;;
43435;SDS011;36399;51.444;-2.018;2022-07-06T06:45:27;3.53;;;2.08;;
43435;SDS011;36399;51.444;-2.018;2022-07-06T06:47:53;2.75;;;1.50;;
43435;SDS011;36399;51.444;-2.018;2022-07-06T06:50:19;3.50;;;1.70;;
43435;SDS011;36399;51.444;-2.018;2022-07-06T06:52:46;5.55;;;2.00;;
43435;SDS011;36399;51.444;-2.018;2022-07-06T06:55:12;3.55;;;1.77;;
43435;SDS011;36399;51.444;-2.018;2022-07-06T06:57:38;3.92;;;1.77;;
43435;SDS011;36399;51.444;-2.018;2022-07-06T07:00:04;3.28;;;1.80;;
43435;SDS011;36399;51.444;-2.018;2022-07-06T07:02:31;2.58;;;1.55;;
43435;SDS011;36399;51.444;-2.018;2022-07-06T07:04:57;2.58;;;1.48;;
43435;SDS011;36399;51.444;-2.018;2022-07-06T07:07:23;3.70;;;1.42;;
43435;SDS011;36399;51.444;-2.018;2022-07-06T07:09:49;3.50;;;1.80;;
43435;SDS011;36399;51.444;-2.018;2022-07-06T07:12:15;2.38;;;1.75;;
43435;SDS011;36399;51.444;-2.018;2022-07-06T07:14:45;3.80;;;1.38;;
43435;SDS011;36399;51.444;-2.018;2022-07-06T07:17:11;2.53;;;1.25;;
43435;SDS011;36399;51.444;-2.018;2022-07-06T07:19:38;3.05;;;1.55;;
43435;SDS011;36399;51.444;-2.018;2022-07-06T07:22:04;3.40;;;1.30;;
43435;SDS011;36399;51.444;-2.018;2022-07-06T07:24:30;2.20;;;1.38;;
43435;SDS011;36399;51.444;-2.018;2022-07-06T07:26:56;2.67;;;1.15;;
43435;SDS011;36399;51.444;-2.018;2022-07-06T07:29:22;1.95;;;1.20;;
43435;SDS011;36399;51.444;-2.018;2022-07-06T07:31:48;2.72;;;1.25;;
43435;SDS011;36399;51.444;-2.018;2022-07-06T07:34:14;4.47;;;2.00;;
43435;SDS011;36399;51.444;-2.018;2022-07-06T07:36:40;2.67;;;1.20;;
43435;SDS011;36399;51.444;-2.018;2022-07-06T07:39:06;3.33;;;1.15;;
43435;SDS011;36399;51.444;-2.018;2022-07-06T07:41:32;3.25;;;1.40;;
43435;SDS011;36399;51.444;-2.018;2022-07-06T07:43:58;3.90;;;1.38;;
43435;SDS011;36399;51.444;-2.018;2022-07-06T07:46:24;2.83;;;1.40;;
43435;SDS011;36399;51.444;-2.018;2022-07-06T07:48:50;3.50;;;1.10;;
43435;SDS011;36399;51.444;-2.018;2022-07-06T07:51:16;2.53;;;1.20;;
43435;SDS011;36399;51.444;-2.018;2022-07-06T07:53:44;2.33;;;1.13;;
43435;SDS011;36399;51.444;-2.018;2022-07-06T07:56:10;2.00;;;1.15;;
43435;SDS011;36399;51.444;-2.018;2022-07-06T07:58:36;2.72;;;1.30;;
43435;SDS011;36399;51.444;-2.018;2022-07-06T08:01:02;4.03;;;1.40;;
43435;SDS011;36399;51.444;-2.018;2022-07-06T08:03:30;2.45;;;1.30;;
43435;SDS011;36399;51.444;-2.018;2022-07-06T08:05:57;2.25;;;1.25;;
43435;SDS011;36399;51.444;-2.018;2022-07-06T08:08:24;2.80;;;1.85;;
43435;SDS011;36399;51.444;-2.018;2022-07-06T08:10:50;1.92;;;1.05;;
43435;SDS011;36399;51.444;-2.018;2022-07-06T08:13:16;3.20;;;1.10;;
43435;SDS011;36399;51.444;-2.018;2022-07-06T08:15:42;2.15;;;1.20;;
43435;SDS011;36399;51.444;-2.018;2022-07-06T08:18:08;2.67;;;1.27;;
43435;SDS011;36399;51.444;-2.018;2022-07-06T08:20:35;3.03;;;0.98;;
43435;SDS011;36399;51.444;-2.018;2022-07-06T08:23:02;2.40;;;1.20;;
43435;SDS011;36399;51.444;-2.018;2022-07-06T08:25:28;2.90;;;1.10;;
43435;SDS011;36399;51.444;-2.018;2022-07-06T08:27:55;3.40;;;1.05;;
43435;SDS011;36399;51.444;-2.018;2022-07-06T08:30:21;2.95;;;1.13;;
43435;SDS011;36399;51.444;-2.018;2022-07-06T08:32:47;2.65;;;1.00;;
43435;SDS011;36399;51.444;-2.018;2022-07-06T08:35:13;2.83;;;0.85;;
43435;SDS011;36399;51.444;-2.018;2022-07-06T08:37:39;2.42;;;0.90;;
43435;SDS011;36399;51.444;-2.018;2022-07-06T08:40:06;3.45;;;1.52;;
43435;SDS011;36399;51.444;-2.018;2022-07-06T08:42:33;5.45;;;2.35;;
43435;SDS011;36399;51.444;-2.018;2022-07-06T08:45:00;5.35;;;1.70;;
43435;SDS011;36399;51.444;-2.018;2022-07-06T08:47:28;2.88;;;1.20;;
43435;SDS011;36399;51.444;-2.018;2022-07-06T08:49:56;3.22;;;1.13;;
43435;SDS011;36399;51.444;-2.018;2022-07-06T08:52:22;1.88;;;0.90;;
43435;SDS011;36399;51.444;-2.018;2022-07-06T08:54:49;2.08;;;0.88;;
43435;SDS011;36399;51.444;-2.018;2022-07-06T08:57:16;2.30;;;1.08;;
43435;SDS011;36399;51.444;-2.018;2022-07-06T08:59:42;3.67;;;1.10;;
43435;SDS011;36399;51.444;-2.018;2022-07-06T09:02:09;4.20;;;1.60;;
43435;SDS011;36399;51.444;-2.018;2022-07-06T09:04:36;3.17;;;1.63;;
43435;SDS011;36399;51.444;-2.018;2022-07-06T09:07:03;7.00;;;2.92;;
43435;SDS011;36399;51.444;-2.018;2022-07-06T09:09:30;3.25;;;1.80;;
43435;SDS011;36399;51.444;-2.018;2022-07-06T09:11:57;5.15;;;2.75;;
43435;SDS011;36399;51.444;-2.018;2022-07-06T09:14:23;4.80;;;1.50;;
43435;SDS011;36399;51.444;-2.018;2022-07-06T09:17:02;2.53;;;1.17;;
43435;SDS011;36399;51.444;-2.018;2022-07-06T09:19:32;2.78;;;1.40;;
43435;SDS011;36399;51.444;-2.018;2022-07-06T09:22:00;8.20;;;4.47;;
43435;SDS011;36399;51.444;-2.018;2022-07-06T09:24:27;4.28;;;1.95;;
43435;SDS011;36399;51.444;-2.018;2022-07-06T09:26:54;3.00;;;1.20;;
43435;SDS011;36399;51.444;-2.018;2022-07-06T09:29:28;2.55;;;1.25;;
43435;SDS011;36399;51.444;-2.018;2022-07-06T09:31:56;3.00;;;1.40;;
43435;SDS011;36399;51.444;-2.018;2022-07-06T09:34:23;2.53;;;1.23;;
43435;SDS011;36399;51.444;-2.018;2022-07-06T09:36:49;2.47;;;0.90;;
43435;SDS011;36399;51.444;-2.018;2022-07-06T09:41:55;2.75;;;0.90;;
43435;SDS011;36399;51.444;-2.018;2022-07-06T09:46:49;2.35;;;1.08;;
43435;SDS011;36399;51.444;-2.018;2022-07-06T09:49:19;2.58;;;0.90;;
43435;SDS011;36399;51.444;-2.018;2022-07-06T09:51:53;3.85;;;0.80;;
43435;SDS011;36399;51.444;-2.018;2022-07-06T09:54:21;2.45;;;0.77;;
43435;SDS011;36399;51.444;-2.018;2022-07-06T09:56:48;4.13;;;1.20;;
43435;SDS011;36399;51.444;-2.018;2022-07-06T09:59:25;3.40;;;1.25;;
43435;SDS011;36399;51.444;-2.018;2022-07-06T10:01:59;2.00;;;0.90;;
43435;SDS011;36399;51.444;-2.018;2022-07-06T10:04:27;1.93;;;0.70;;
43435;SDS011;36399;51.444;-2.018;2022-07-06T10:06:54;1.08;;;0.68;;
43435;SDS011;36399;51.444;-2.018;2022-07-06T10:09:23;1.23;;;0.57;;
43435;SDS011;36399;51.444;-2.018;2022-07-06T10:11:54;1.70;;;0.60;;
43435;SDS011;36399;51.444;-2.018;2022-07-06T10:14:25;1.60;;;0.75;;
43435;SDS011;36399;51.444;-2.018;2022-07-06T10:16:56;1.52;;;0.80;;
43435;SDS011;36399;51.444;-2.018;2022-07-06T10:19:24;2.25;;;0.98;;
43435;SDS011;36399;51.444;-2.018;2022-07-06T10:21:51;1.65;;;0.80;;
43435;SDS011;36399;51.444;-2.018;2022-07-06T10:24:18;3.33;;;0.70;;
43435;SDS011;36399;51.444;-2.018;2022-07-06T10:26:46;2.25;;;0.98;;
43435;SDS011;36399;51.444;-2.018;2022-07-06T10:29:12;3.53;;;1.00;;
43435;SDS011;36399;51.444;-2.018;2022-07-06T10:31:45;2.30;;;1.00;;
43435;SDS011;36399;51.444;-2.018;2022-07-06T10:34:15;1.88;;;0.80;;
43435;SDS011;36399;51.444;-2.018;2022-07-06T10:36:44;1.30;;;0.60;;
43435;SDS011;36399;51.444;-2.018;2022-07-06T10:39:14;2.22;;;0.73;;
43435;SDS011;36399;51.444;-2.018;2022-07-06T10:41:58;1.30;;;0.70;;
43435;SDS011;36399;51.444;-2.018;2022-07-06T10:44:25;3.00;;;0.70;;
43435;SDS011;36399;51.444;-2.018;2022-07-06T10:46:53;1.05;;;0.60;;
43435;SDS011;36399;51.444;-2.018;2022-07-06T10:49:23;2.95;;;0.63;;
43435;SDS011;36399;51.444;-2.018;2022-07-06T10:51:50;0.82;;;0.60;;
43435;SDS011;36399;51.444;-2.018;2022-07-06T10:54:17;1.48;;;0.90;;
43435;SDS011;36399;51.444;-2.018;2022-07-06T10:56:45;2.13;;;1.00;;
43435;SDS011;36399;51.444;-2.018;2022-07-06T10:59:14;1.38;;;0.70;;
43435;SDS011;36399;51.444;-2.018;2022-07-06T11:02:10;1.95;;;1.08;;
43435;SDS011;36399;51.444;-2.018;2022-07-06T11:04:43;1.73;;;0.60;;
43435;SDS011;36399;51.444;-2.018;2022-07-06T11:07:12;1.48;;;0.68;;
43435;SDS011;36399;51.444;-2.018;2022-07-06T11:09:40;8.38;;;1.00;;
43435;SDS011;36399;51.444;-2.018;2022-07-06T11:12:16;3.22;;;1.42;;
43435;SDS011;36399;51.444;-2.018;2022-07-06T11:14:47;2.50;;;1.10;;
43435;SDS011;36399;51.444;-2.018;2022-07-06T11:17:14;3.38;;;0.95;;
43435;SDS011;36399;51.444;-2.018;2022-07-06T11:19:55;3.00;;;1.00;;
43435;SDS011;36399;51.444;-2.018;2022-07-06T11:22:22;3.03;;;1.20;;
43435;SDS011;36399;51.444;-2.018;2022-07-06T11:24:52;2.40;;;1.13;;
43435;SDS011;36399;51.444;-2.018;2022-07-06T11:27:19;2.53;;;1.23;;
43435;SDS011;36399;51.444;-2.018;2022-07-06T11:29:47;2.53;;;0.90;;
43435;SDS011;36399;51.444;-2.018;2022-07-06T11:32:13;3.20;;;0.70;;
43435;SDS011;36399;51.444;-2.018;2022-07-06T11:34:41;1.75;;;0.70;;
43435;SDS011;36399;51.444;-2.018;2022-07-06T11:37:11;1.48;;;0.82;;
43435;SDS011;36399;51.444;-2.018;2022-07-06T11:39:39;1.40;;;0.52;;
43435;SDS011;36399;51.444;-2.018;2022-07-06T11:42:07;1.73;;;0.77;;
43435;SDS011;36399;51.444;-2.018;2022-07-06T11:44:35;2.85;;;0.63;;
43435;SDS011;36399;51.444;-2.018;2022-07-06T11:47:04;1.48;;;0.45;;
43435;SDS011;36399;51.444;-2.018;2022-07-06T11:49:32;1.45;;;0.40;;
43435;SDS011;36399;51.444;-2.018;2022-07-06T11:52:00;2.47;;;0.60;;
43435;SDS011;36399;51.444;-2.018;2022-07-06T11:54:31;1.80;;;0.80;;
43435;SDS011;36399;51.444;-2.018;2022-07-06T11:56:58;1.13;;;0.40;;
43435;SDS011;36399;51.444;-2.018;2022-07-06T11:59:25;0.77;;;0.40;;
43435;SDS011;36399;51.444;-2.018;2022-07-06T12:02:06;0.95;;;0.52;;
43435;SDS011;36399;51.444;-2.018;2022-07-06T12:04:37;2.25;;;0.57;;
43435;SDS011;36399;51.444;-2.018;2022-07-06T12:07:06;2.22;;;0.60;;
43435;SDS011;36399;51.444;-2.018;2022-07-06T12:09:34;1.95;;;0.65;;
43435;SDS011;36399;51.444;-2.018;2022-07-06T12:12:02;3.22;;;0.50;;
43435;SDS011;36399;51.444;-2.018;2022-07-06T12:14:30;2.92;;;0.85;;
43435;SDS011;36399;51.444;-2.018;2022-07-06T12:21:56;2.45;;;1.20;;
43435;SDS011;36399;51.444;-2.018;2022-07-06T12:26:49;1.48;;;0.60;;
43435;SDS011;36399;51.444;-2.018;2022-07-06T12:29:17;1.85;;;0.75;;
43435;SDS011;36399;51.444;-2.018;2022-07-06T12:31:48;0.77;;;0.50;;
43435;SDS011;36399;51.444;-2.018;2022-07-06T12:34:23;1.73;;;0.70;;
43435;SDS011;36399;51.444;-2.018;2022-07-06T12:36:54;0.88;;;0.50;;
43435;SDS011;36399;51.444;-2.018;2022-07-06T12:39:22;1.30;;;0.50;;
43435;SDS011;36399;51.444;-2.018;2022-07-06T12:42:03;0.63;;;0.43;;
43435;SDS011;36399;51.444;-2.018;2022-07-06T12:44:33;1.60;;;0.52;;
43435;SDS011;36399;51.444;-2.018;2022-07-06T12:47:08;1.55;;;0.55;;
43435;SDS011;36399;51.444;-2.018;2022-07-06T12:49:35;1.73;;;0.60;;
43435;SDS011;36399;51.444;-2.018;2022-07-06T12:54:41;2.80;;;0.60;;
43435;SDS011;36399;51.444;-2.018;2022-07-06T12:57:12;1.55;;;0.60;;
43435;SDS011;36399;51.444;-2.018;2022-07-06T12:59:55;1.77;;;0.88;;
43435;SDS011;36399;51.444;-2.018;2022-07-06T13:04:59;1.38;;;0.60;;
43435;SDS011;36399;51.444;-2.018;2022-07-06T13:07:30;1.17;;;0.63;;
43435;SDS011;36399;51.444;-2.018;2022-07-06T13:09:57;2.80;;;0.63;;
43435;SDS011;36399;51.444;-2.018;2022-07-06T13:12:24;1.58;;;0.70;;
43435;SDS011;36399;51.444;-2.018;2022-07-06T13:14:50;2.03;;;0.52;;
43435;SDS011;36399;51.444;-2.018;2022-07-06T13:17:17;1.77;;;0.70;;
43435;SDS011;36399;51.444;-2.018;2022-07-06T13:19:43;2.88;;;0.60;;
43435;SDS011;36399;51.444;-2.018;2022-07-06T13:22:09;1.92;;;0.60;;
43435;SDS011;36399;51.444;-2.018;2022-07-06T13:24:35;1.88;;;0.60;;
43435;SDS011;36399;51.444;-2.018;2022-07-06T13:27:02;2.40;;;0.60;;
43435;SDS011;36399;51.444;-2.018;2022-07-06T13:29:28;1.08;;;0.50;;
43435;SDS011;36399;51.444;-2.018;2022-07-06T13:31:54;1.25;;;0.60;;
43435;SDS011;36399;51.444;-2.018;2022-07-06T13:34:20;2.53;;;0.50;;
43435;SDS011;36399;51.444;-2.018;2022-07-06T13:36:46;1.73;;;0.50;;
43435;SDS011;36399;51.444;-2.018;2022-07-06T13:39:13;1.10;;;0.50;;
43435;SDS011;36399;51.444;-2.018;2022-07-06T13:41:39;1.88;;;0.70;;
43435;SDS011;36399;51.444;-2.018;2022-07-06T13:44:05;2.38;;;0.63;;
43435;SDS011;36399;51.444;-2.018;2022-07-06T13:46:32;1.05;;;0.63;;
43435;SDS011;36399;51.444;-2.018;2022-07-06T13:48:59;1.52;;;0.60;;
43435;SDS011;36399;51.444;-2.018;2022-07-06T13:51:25;2.00;;;0.47;;
43435;SDS011;36399;51.444;-2.018;2022-07-06T13:53:52;1.00;;;0.60;;
43435;SDS011;36399;51.444;-2.018;2022-07-06T13:56:19;2.15;;;0.55;;
43435;SDS011;36399;51.444;-2.018;2022-07-06T13:58:45;1.83;;;0.88;;
43435;SDS011;36399;51.444;-2.018;2022-07-06T14:01:11;1.35;;;0.80;;
43435;SDS011;36399;51.444;-2.018;2022-07-06T14:03:37;1.35;;;0.70;;
43435;SDS011;36399;51.444;-2.018;2022-07-06T14:06:04;1.90;;;0.70;;
43435;SDS011;36399;51.444;-2.018;2022-07-06T14:08:37;1.20;;;0.60;;
43435;SDS011;36399;51.444;-2.018;2022-07-06T14:11:04;1.90;;;0.70;;
43435;SDS011;36399;51.444;-2.018;2022-07-06T14:13:33;3.28;;;0.85;;
43435;SDS011;36399;51.444;-2.018;2022-07-06T14:15:59;1.52;;;0.65;;
43435;SDS011;36399;51.444;-2.018;2022-07-06T14:18:25;1.67;;;0.90;;
43435;SDS011;36399;51.444;-2.018;2022-07-06T14:20:52;2.22;;;0.80;;
43435;SDS011;36399;51.444;-2.018;2022-07-06T14:23:19;1.80;;;0.60;;
43435;SDS011;36399;51.444;-2.018;2022-07-06T14:25:46;2.92;;;0.90;;
43435;SDS011;36399;51.444;-2.018;2022-07-06T14:28:13;2.63;;;0.70;;
43435;SDS011;36399;51.444;-2.018;2022-07-06T14:30:39;1.67;;;0.85;;
43435;SDS011;36399;51.444;-2.018;2022-07-06T14:33:06;1.52;;;0.95;;
43435;SDS011;36399;51.444;-2.018;2022-07-06T14:35:36;2.50;;;0.90;;
43435;SDS011;36399;51.444;-2.018;2022-07-06T14:38:04;1.85;;;1.00;;
43435;SDS011;36399;51.444;-2.018;2022-07-06T14:40:31;2.85;;;1.10;;
43435;SDS011;36399;51.444;-2.018;2022-07-06T14:42:57;1.98;;;1.08;;
43435;SDS011;36399;51.444;-2.018;2022-07-06T14:45:24;6.57;;;1.77;;
43435;SDS011;36399;51.444;-2.018;2022-07-06T14:47:50;4.03;;;1.45;;
43435;SDS011;36399;51.444;-2.018;2022-07-06T14:50:16;4.00;;;1.35;;
43435;SDS011;36399;51.444;-2.018;2022-07-06T14:52:42;4.07;;;1.45;;